Time;durP1;ratioP1;P1;durP2;ratioP2;P2;SDS_P1;SDS_P2;PMS_P1;PMS_P2;Temp;Humidity;BMP_temperature;BMP_pressure;BME280_temperature;BME280_humidity;BME280_pressure;Samples;Min_cycle;Max_cycle;Signal;HPM_P1;HPM_P2
2023/12/18 00:01:27;;;;;;;37.05;20.95;;;;;;;;;;5099124;28;20051;-76
2023/12/18 00:03:54;;;;;;;37.33;21.00;;;;;;;;;;5099419;28;20051;-76
2023/12/18 00:06:20;;;;;;;31.50;20.20;;;;;;;;;;5099309;28;20044;-77
2023/12/18 00:08:46;;;;;;;37.70;19.27;;;;;;;;;;5099483;28;20039;-76
2023/12/18 00:11:14;;;;;;;30.45;19.70;;;;;;;;;;5099113;28;20040;-76
2023/12/18 00:13:40;;;;;;;37.00;19.92;;;;;;;;;;5099224;28;20477;-76
2023/12/18 00:16:06;;;;;;;40.03;21.92;;;;;;;;;;5099495;28;20039;-76
2023/12/18 00:18:32;;;;;;;26.67;20.13;;;;;;;;;;5083084;28;20070;-76
2023/12/18 00:20:58;;;;;;;32.45;20.00;;;;;;;;;;5099084;28;20442;-76
2023/12/18 00:23:24;;;;;;;34.58;20.70;;;;;;;;;;5098852;28;20425;-76
2023/12/18 00:25:50;;;;;;;37.47;21.75;;;;;;;;;;5099036;28;20391;-77
2023/12/18 00:28:16;;;;;;;32.50;21.70;;;;;;;;;;5098975;28;20391;-77
2023/12/18 00:30:42;;;;;;;32.97;20.52;;;;;;;;;;5082290;28;20044;-76
2023/12/18 00:33:08;;;;;;;32.78;21.08;;;;;;;;;;5099556;28;20047;-76
2023/12/18 00:35:35;;;;;;;35.35;21.38;;;;;;;;;;5098802;28;20047;-76
2023/12/18 00:38:01;;;;;;;32.80;21.35;;;;;;;;;;5098774;28;20058;-76
2023/12/18 00:40:27;;;;;;;32.92;20.30;;;;;;;;;;5098509;28;20051;-76
2023/12/18 00:42:53;;;;;;;36.03;22.13;;;;;;;;;;5098662;28;20098;-76
2023/12/18 00:45:19;;;;;;;37.58;21.90;;;;;;;;;;5116494;28;20100;-76
2023/12/18 00:47:45;;;;;;;38.83;21.20;;;;;;;;;;5065402;28;20100;-76
2023/12/18 00:50:11;;;;;;;35.47;21.55;;;;;;;;;;5098468;28;20199;-76
2023/12/18 00:52:37;;;;;;;37.38;21.52;;;;;;;;;;5098107;28;20097;-77
2023/12/18 00:55:03;;;;;;;35.13;20.60;;;;;;;;;;5116546;28;20087;-76
2023/12/18 00:57:29;;;;;;;33.50;20.45;;;;;;;;;;5098351;28;20047;-76
2023/12/18 00:59:56;;;;;;;28.77;19.73;;;;;;;;;;5098305;28;20058;-76
2023/12/18 01:02:22;;;;;;;29.33;20.80;;;;;;;;;;5098318;28;20039;-76
2023/12/18 01:04:48;;;;;;;35.67;21.13;;;;;;;;;;5098274;28;20040;-76
2023/12/18 01:07:14;;;;;;;37.03;20.15;;;;;;;;;;5098196;28;20058;-76
2023/12/18 01:09:40;;;;;;;32.95;20.35;;;;;;;;;;5098000;28;20059;-76
2023/12/18 01:12:06;;;;;;;36.38;21.92;;;;;;;;;;5080637;28;20100;-76
2023/12/18 01:14:32;;;;;;;36.83;21.23;;;;;;;;;;5097739;28;20490;-76
2023/12/18 01:16:58;;;;;;;34.05;20.73;;;;;;;;;;5098749;28;20417;-76
2023/12/18 01:19:24;;;;;;;35.55;20.67;;;;;;;;;;5081390;28;20046;-76
2023/12/18 01:21:50;;;;;;;32.88;20.63;;;;;;;;;;5097905;28;20151;-76
2023/12/18 01:24:17;;;;;;;32.38;19.63;;;;;;;;;;5097850;28;20111;-77
2023/12/18 01:26:44;;;;;;;32.03;19.88;;;;;;;;;;5097809;28;20052;-76
2023/12/18 01:29:10;;;;;;;34.42;20.33;;;;;;;;;;5097709;28;20078;-76
2023/12/18 01:31:36;;;;;;;32.90;20.67;;;;;;;;;;5098509;28;20039;-76
2023/12/18 01:34:02;;;;;;;30.88;20.98;;;;;;;;;;5115468;28;20079;-77
2023/12/18 01:36:28;;;;;;;40.35;21.23;;;;;;;;;;5098388;28;20134;-76
2023/12/18 01:38:54;;;;;;;36.28;20.83;;;;;;;;;;5115871;28;20104;-77
2023/12/18 01:41:20;;;;;;;36.10;21.27;;;;;;;;;;5080445;28;20494;-76
2023/12/18 01:43:46;;;;;;;32.80;20.52;;;;;;;;;;5063762;28;20043;-77
2023/12/18 01:46:15;;;;;;;33.45;20.67;;;;;;;;;;5115393;28;20047;-76
2023/12/18 01:48:41;;;;;;;32.40;20.70;;;;;;;;;;5097138;28;20054;-76
2023/12/18 01:51:07;;;;;;;33.20;21.00;;;;;;;;;;5114949;28;20403;-76
2023/12/18 01:53:42;;;;;;;37.63;22.63;;;;;;;;;;5097166;28;20090;-77
2023/12/18 01:56:08;;;;;;;33.97;21.80;;;;;;;;;;5080125;28;20055;-76
2023/12/18 01:58:35;;;;;;;36.88;21.92;;;;;;;;;;5115096;28;20043;-76
2023/12/18 02:01:01;;;;;;;37.90;22.38;;;;;;;;;;5080263;28;20047;-76
2023/12/18 02:03:29;;;;;;;36.63;23.52;;;;;;;;;;5096831;28;20039;-76
2023/12/18 02:05:58;;;;;;;31.90;21.55;;;;;;;;;;5097803;28;20148;-76
2023/12/18 02:08:25;;;;;;;37.13;21.70;;;;;;;;;;5079961;28;20051;-76
2023/12/18 02:10:51;;;;;;;32.72;22.02;;;;;;;;;;5097784;28;20058;-77
2023/12/18 02:13:17;;;;;;;33.88;22.05;;;;;;;;;;5080118;28;20081;-76
2023/12/18 02:15:43;;;;;;;33.40;22.42;;;;;;;;;;5097066;28;20051;-76
2023/12/18 02:18:09;;;;;;;38.33;22.60;;;;;;;;;;5114763;28;20040;-76
2023/12/18 02:20:35;;;;;;;37.63;22.85;;;;;;;;;;5097119;28;20391;-76
2023/12/18 02:23:02;;;;;;;37.42;23.73;;;;;;;;;;5095896;28;20168;-77
2023/12/18 02:25:28;;;;;;;30.80;23.55;;;;;;;;;;5096701;28;20492;-76
2023/12/18 02:27:54;;;;;;;32.97;22.05;;;;;;;;;;5096704;28;20130;-76
2023/12/18 02:30:23;;;;;;;31.50;22.13;;;;;;;;;;5097453;28;20386;-76
2023/12/18 02:32:49;;;;;;;37.85;22.98;;;;;;;;;;5114793;28;20048;-77
2023/12/18 02:35:16;;;;;;;32.45;23.48;;;;;;;;;;5096694;28;20043;-77
2023/12/18 02:37:42;;;;;;;40.88;24.63;;;;;;;;;;5114454;28;20130;-75
2023/12/18 02:40:08;;;;;;;33.53;22.83;;;;;;;;;;5096535;28;20054;-77
2023/12/18 02:42:34;;;;;;;36.83;22.90;;;;;;;;;;5095997;28;20048;-84
2023/12/18 02:45:01;;;;;;;40.03;23.23;;;;;;;;;;5096336;28;20086;-84
2023/12/18 02:47:27;;;;;;;34.90;23.85;;;;;;;;;;5096330;28;20479;-84
2023/12/18 02:49:53;;;;;;;38.13;21.85;;;;;;;;;;5063696;28;20051;-84
2023/12/18 02:52:19;;;;;;;31.83;21.30;;;;;;;;;;5080345;28;20056;-84
2023/12/18 02:54:45;;;;;;;34.30;22.42;;;;;;;;;;5095891;28;20539;-85
2023/12/18 02:57:11;;;;;;;36.40;22.73;;;;;;;;;;5096515;28;20047;-84
2023/12/18 02:59:37;;;;;;;31.25;22.45;;;;;;;;;;5079366;28;20472;-84
2023/12/18 03:02:04;;;;;;;36.95;22.17;;;;;;;;;;5080242;28;20380;-84
2023/12/18 03:04:30;;;;;;;36.67;23.45;;;;;;;;;;5079339;28;20048;-84
2023/12/18 03:06:56;;;;;;;30.88;23.00;;;;;;;;;;5096139;28;20136;-84
2023/12/18 03:09:22;;;;;;;32.15;22.13;;;;;;;;;;5079590;28;20054;-84
2023/12/18 03:11:48;;;;;;;39.03;21.77;;;;;;;;;;5080069;28;20051;-84
2023/12/18 03:14:14;;;;;;;32.67;20.95;;;;;;;;;;5078977;28;20040;-84
2023/12/18 03:16:41;;;;;;;35.97;21.83;;;;;;;;;;5079175;28;20395;-84
2023/12/18 03:19:07;;;;;;;31.20;21.33;;;;;;;;;;5096288;28;20048;-84
2023/12/18 03:21:33;;;;;;;31.52;20.42;;;;;;;;;;5079423;28;20059;-84
2023/12/18 03:23:59;;;;;;;30.13;21.30;;;;;;;;;;5079154;28;20062;-84
2023/12/18 03:26:25;;;;;;;36.53;21.92;;;;;;;;;;5079001;28;20048;-84
2023/12/18 03:28:51;;;;;;;36.67;21.30;;;;;;;;;;5079170;28;20130;-84
2023/12/18 03:31:17;;;;;;;34.45;21.15;;;;;;;;;;5079016;28;20472;-84
2023/12/18 03:33:43;;;;;;;38.42;22.88;;;;;;;;;;5078813;28;20066;-84
2023/12/18 03:36:09;;;;;;;35.85;22.52;;;;;;;;;;5099848;28;20044;-84
2023/12/18 03:38:35;;;;;;;30.25;22.15;;;;;;;;;;5099873;28;20047;-84
2023/12/18 03:41:01;;;;;;;29.17;19.02;;;;;;;;;;5100694;28;20058;-84
2023/12/18 03:43:28;;;;;;;32.42;22.55;;;;;;;;;;5082972;28;20510;-84
2023/12/18 03:45:54;;;;;;;35.20;20.63;;;;;;;;;;5082825;28;20078;-84
2023/12/18 03:48:20;;;;;;;29.45;21.15;;;;;;;;;;5066493;28;20047;-84
2023/12/18 03:50:46;;;;;;;30.85;20.73;;;;;;;;;;5099663;28;20083;-84
2023/12/18 03:53:12;;;;;;;33.70;21.08;;;;;;;;;;5099758;28;20039;-84
2023/12/18 03:55:39;;;;;;;32.05;20.55;;;;;;;;;;5082271;28;20195;-84
2023/12/18 03:58:05;;;;;;;32.80;20.08;;;;;;;;;;5066113;28;20087;-84
2023/12/18 04:00:31;;;;;;;36.83;21.70;;;;;;;;;;5099698;28;20051;-84
2023/12/18 04:02:57;;;;;;;35.67;20.02;;;;;;;;;;5082484;28;20047;-84
2023/12/18 04:05:24;;;;;;;29.40;21.13;;;;;;;;;;5082582;28;20052;-84
2023/12/18 04:07:50;;;;;;;36.63;19.60;;;;;;;;;;5082347;28;20040;-84
2023/12/18 04:10:16;;;;;;;32.50;21.35;;;;;;;;;;5082389;28;20403;-84
2023/12/18 04:12:42;;;;;;;31.27;19.92;;;;;;;;;;5099940;28;20441;-84
2023/12/18 04:15:09;;;;;;;31.80;22.63;;;;;;;;;;5082407;28;20044;-84
2023/12/18 04:17:36;;;;;;;35.75;21.75;;;;;;;;;;5098821;28;20043;-84
2023/12/18 04:20:02;;;;;;;34.53;20.85;;;;;;;;;;5082214;28;20048;-84
2023/12/18 04:22:28;;;;;;;29.63;21.08;;;;;;;;;;5065789;28;20047;-84
2023/12/18 04:24:54;;;;;;;28.70;20.75;;;;;;;;;;5099018;28;20055;-84
2023/12/18 04:27:20;;;;;;;28.65;20.55;;;;;;;;;;5099009;28;20040;-84
2023/12/18 04:29:46;;;;;;;30.70;21.98;;;;;;;;;;5082271;28;20425;-84
2023/12/18 04:32:12;;;;;;;35.72;20.85;;;;;;;;;;5082323;28;20054;-84
2023/12/18 04:34:39;;;;;;;30.52;20.92;;;;;;;;;;5099327;28;20040;-84
2023/12/18 04:37:06;;;;;;;32.42;22.45;;;;;;;;;;5099092;28;20094;-84
2023/12/18 04:39:32;;;;;;;34.03;21.60;;;;;;;;;;5098920;28;20090;-84
2023/12/18 04:41:58;;;;;;;35.47;22.58;;;;;;;;;;5064970;28;20051;-84
2023/12/18 04:44:25;;;;;;;28.40;20.40;;;;;;;;;;5099458;28;20044;-84
2023/12/18 04:46:51;;;;;;;30.15;21.38;;;;;;;;;;5080674;28;20040;-84
2023/12/18 04:49:18;;;;;;;31.98;21.15;;;;;;;;;;5099251;28;20130;-84
2023/12/18 04:51:44;;;;;;;31.95;21.40;;;;;;;;;;5081808;28;20073;-84
2023/12/18 04:54:10;;;;;;;29.90;20.25;;;;;;;;;;5098091;28;20059;-84
2023/12/18 04:56:37;;;;;;;27.60;20.38;;;;;;;;;;5065595;28;20097;-84
2023/12/18 04:59:03;;;;;;;30.48;21.23;;;;;;;;;;5065087;28;20051;-84
2023/12/18 05:01:29;;;;;;;39.17;21.35;;;;;;;;;;5098649;28;20134;-84
2023/12/18 05:03:55;;;;;;;31.42;21.25;;;;;;;;;;5099097;28;20166;-83
2023/12/18 05:06:22;;;;;;;30.67;19.60;;;;;;;;;;5098192;28;20043;-84
2023/12/18 05:08:49;;;;;;;36.42;19.52;;;;;;;;;;5097825;28;20039;-84
2023/12/18 05:11:18;;;;;;;29.83;20.35;;;;;;;;;;5081319;28;20120;-84
2023/12/18 05:13:45;;;;;;;28.95;19.92;;;;;;;;;;5080852;28;20478;-84
2023/12/18 05:16:11;;;;;;;31.73;20.90;;;;;;;;;;5098247;28;20364;-84
2023/12/18 05:18:37;;;;;;;26.67;15.60;;;;;;;;;;5098742;28;20413;-84
2023/12/18 05:21:06;;;;;;;27.10;19.73;;;;;;;;;;5098672;28;20475;-84
2023/12/18 05:23:32;;;;;;;26.63;19.98;;;;;;;;;;5097849;28;20050;-84
2023/12/18 05:25:59;;;;;;;26.50;19.98;;;;;;;;;;5097846;28;20136;-84
2023/12/18 05:28:25;;;;;;;26.45;18.45;;;;;;;;;;5081565;28;20044;-85
2023/12/18 05:30:51;;;;;;;29.50;20.00;;;;;;;;;;5097412;28;20400;-84
2023/12/18 05:33:18;;;;;;;29.52;20.92;;;;;;;;;;5098253;28;20069;-84
2023/12/18 05:35:44;;;;;;;26.20;18.95;;;;;;;;;;5080706;28;20487;-85
2023/12/18 05:38:10;;;;;;;31.58;20.45;;;;;;;;;;5097311;28;20047;-84
2023/12/18 05:40:36;;;;;;;27.85;19.80;;;;;;;;;;5097253;28;20047;-84
2023/12/18 05:43:02;;;;;;;26.63;19.70;;;;;;;;;;5064052;28;20039;-83
2023/12/18 05:45:29;;;;;;;29.48;19.98;;;;;;;;;;5098068;28;20444;-84
2023/12/18 05:47:55;;;;;;;34.95;21.10;;;;;;;;;;5097295;28;20040;-84
2023/12/18 05:50:21;;;;;;;28.83;20.83;;;;;;;;;;5098107;28;20047;-85
2023/12/18 05:52:47;;;;;;;31.13;20.45;;;;;;;;;;5063660;28;20047;-84
2023/12/18 05:55:13;;;;;;;32.15;21.15;;;;;;;;;;5060102;28;20068;-84
2023/12/18 05:57:41;;;;;;;30.30;20.45;;;;;;;;;;5077496;28;20036;-84
2023/12/18 06:00:07;;;;;;;31.63;20.13;;;;;;;;;;5094006;28;20047;-84
2023/12/18 06:02:34;;;;;;;31.15;20.80;;;;;;;;;;5093943;28;20085;-84
2023/12/18 06:05:00;;;;;;;27.40;19.25;;;;;;;;;;5077536;28;20047;-84
2023/12/18 06:07:26;;;;;;;28.35;19.25;;;;;;;;;;5093589;28;20040;-84
2023/12/18 06:09:52;;;;;;;27.50;19.67;;;;;;;;;;5076952;28;20059;-84
2023/12/18 06:12:18;;;;;;;27.70;20.55;;;;;;;;;;5076896;28;20089;-84
2023/12/18 06:14:44;;;;;;;34.17;21.08;;;;;;;;;;5076257;28;20040;-84
2023/12/18 06:17:10;;;;;;;30.40;20.63;;;;;;;;;;5093036;28;20082;-84
2023/12/18 06:19:36;;;;;;;31.02;21.13;;;;;;;;;;5076630;28;20055;-84
2023/12/18 06:22:03;;;;;;;31.60;20.33;;;;;;;;;;5076159;28;20056;-84
2023/12/18 06:24:29;;;;;;;31.50;20.80;;;;;;;;;;5093332;28;20048;-84
2023/12/18 06:26:55;;;;;;;29.75;19.77;;;;;;;;;;5076824;28;20429;-84
2023/12/18 06:29:22;;;;;;;29.38;19.13;;;;;;;;;;5093275;28;20054;-84
2023/12/18 06:31:48;;;;;;;33.88;20.75;;;;;;;;;;5059781;28;20100;-84
2023/12/18 06:34:14;;;;;;;30.38;19.15;;;;;;;;;;5076342;28;20086;-84
2023/12/18 06:36:40;;;;;;;27.75;20.70;;;;;;;;;;5076284;28;20043;-84
2023/12/18 06:39:06;;;;;;;29.13;20.25;;;;;;;;;;5093063;28;20051;-85
2023/12/18 06:41:32;;;;;;;29.88;20.00;;;;;;;;;;5093769;28;20055;-84
2023/12/18 06:43:58;;;;;;;25.58;20.15;;;;;;;;;;5093832;28;20055;-84
2023/12/18 06:46:24;;;;;;;31.38;21.20;;;;;;;;;;5076068;28;20495;-84
2023/12/18 06:48:51;;;;;;;30.90;20.85;;;;;;;;;;5076368;28;20043;-84
2023/12/18 06:51:17;;;;;;;34.83;21.08;;;;;;;;;;5076055;28;20048;-84
2023/12/18 06:53:43;;;;;;;30.35;20.92;;;;;;;;;;5078618;28;20389;-84
2023/12/18 06:56:09;;;;;;;31.63;21.80;;;;;;;;;;5080284;28;20055;-84
2023/12/18 06:58:35;;;;;;;31.23;22.08;;;;;;;;;;5079494;28;20053;-84
2023/12/18 07:01:01;;;;;;;27.88;21.42;;;;;;;;;;5079376;28;20445;-84
2023/12/18 07:03:27;;;;;;;26.02;20.80;;;;;;;;;;5079409;28;20433;-85
2023/12/18 07:05:53;;;;;;;33.05;21.05;;;;;;;;;;5096605;28;20047;-83
2023/12/18 07:08:20;;;;;;;28.90;20.02;;;;;;;;;;5095966;28;20101;-84
2023/12/18 07:10:46;;;;;;;30.52;21.77;;;;;;;;;;5079074;28;20048;-83
2023/12/18 07:13:13;;;;;;;34.08;21.98;;;;;;;;;;5095988;28;20072;-84
2023/12/18 07:15:39;;;;;;;29.48;20.67;;;;;;;;;;5079781;28;20415;-84
2023/12/18 07:18:07;;;;;;;32.92;22.23;;;;;;;;;;5079271;28;20059;-83
2023/12/18 07:20:33;;;;;;;32.28;22.00;;;;;;;;;;5079512;28;20052;-83
2023/12/18 07:22:59;;;;;;;29.33;21.88;;;;;;;;;;5096052;28;20039;-84
2023/12/18 07:25:25;;;;;;;31.48;21.55;;;;;;;;;;5096819;28;20079;-84
2023/12/18 07:27:51;;;;;;;28.58;21.65;;;;;;;;;;5096199;28;20039;-85
2023/12/18 07:30:17;;;;;;;31.77;22.38;;;;;;;;;;5096760;28;20425;-84
2023/12/18 07:32:43;;;;;;;30.55;22.40;;;;;;;;;;5079306;28;20411;-83
2023/12/18 07:35:10;;;;;;;34.50;21.95;;;;;;;;;;5079875;28;20086;-84
2023/12/18 07:37:36;;;;;;;36.13;23.38;;;;;;;;;;5079182;28;20373;-84
2023/12/18 07:40:03;;;;;;;31.00;21.23;;;;;;;;;;5095912;28;20476;-83
2023/12/18 07:42:29;;;;;;;33.88;23.30;;;;;;;;;;5079787;28;20096;-84
2023/12/18 07:44:55;;;;;;;35.78;22.35;;;;;;;;;;5096352;28;20365;-84
2023/12/18 07:47:21;;;;;;;32.72;22.98;;;;;;;;;;5078976;28;20040;-84
2023/12/18 07:49:49;;;;;;;34.80;22.77;;;;;;;;;;5095508;28;20040;-83
2023/12/18 07:52:16;;;;;;;34.65;22.60;;;;;;;;;;5096644;28;20086;-84
2023/12/18 07:54:42;;;;;;;33.90;22.70;;;;;;;;;;5078317;28;20059;-84
2023/12/18 07:57:08;;;;;;;32.15;23.70;;;;;;;;;;5078837;28;20052;-84
2023/12/18 07:59:39;;;;;;;36.70;23.75;;;;;;;;;;5095717;28;20138;-84
2023/12/18 08:02:09;;;;;;;34.53;25.02;;;;;;;;;;5079081;28;20412;-84
2023/12/18 08:04:35;;;;;;;33.38;24.48;;;;;;;;;;5095459;28;20043;-84
2023/12/18 08:07:02;;;;;;;37.13;24.85;;;;;;;;;;5061927;28;20411;-83
2023/12/18 08:09:28;;;;;;;32.65;23.90;;;;;;;;;;5095816;28;20051;-84
2023/12/18 08:11:54;;;;;;;33.13;24.77;;;;;;;;;;5061892;28;20059;-84
2023/12/18 08:14:20;;;;;;;39.72;24.30;;;;;;;;;;5078409;28;20044;-84
2023/12/18 08:16:46;;;;;;;35.03;25.23;;;;;;;;;;5078706;28;20043;-84
2023/12/18 08:19:12;;;;;;;34.65;22.73;;;;;;;;;;5062363;28;20081;-84
2023/12/18 08:21:39;;;;;;;37.30;21.67;;;;;;;;;;5097731;28;20105;-84
2023/12/18 08:24:05;;;;;;;36.10;24.40;;;;;;;;;;5082303;28;20052;-83
2023/12/18 08:26:31;;;;;;;35.80;24.27;;;;;;;;;;5099117;28;20471;-83
2023/12/18 08:28:57;;;;;;;32.45;24.13;;;;;;;;;;5082944;28;20086;-84
2023/12/18 08:31:23;;;;;;;36.50;23.52;;;;;;;;;;5099699;28;20043;-83
2023/12/18 08:33:50;;;;;;;40.80;26.00;;;;;;;;;;5081635;28;20043;-83
2023/12/18 08:36:16;;;;;;;35.53;25.80;;;;;;;;;;5065286;28;20043;-83
2023/12/18 08:38:48;;;;;;;34.20;24.52;;;;;;;;;;5082333;28;20083;-84
2023/12/18 08:41:14;;;;;;;35.58;24.55;;;;;;;;;;5098519;28;20051;-84
2023/12/18 08:43:42;;;;;;;36.65;25.45;;;;;;;;;;5081830;28;20476;-83
2023/12/18 08:46:08;;;;;;;33.08;24.40;;;;;;;;;;5082360;28;20048;-84
2023/12/18 08:48:34;;;;;;;36.35;25.27;;;;;;;;;;5082610;28;20051;-84
2023/12/18 08:51:00;;;;;;;31.63;22.95;;;;;;;;;;5065455;28;20051;-84
2023/12/18 08:53:26;;;;;;;37.95;25.67;;;;;;;;;;5081640;28;20040;-83
2023/12/18 08:55:52;;;;;;;35.63;26.33;;;;;;;;;;5064983;28;20074;-84
2023/12/18 08:58:20;;;;;;;34.08;25.95;;;;;;;;;;5065911;28;20060;-84
2023/12/18 09:00:47;;;;;;;36.08;26.23;;;;;;;;;;5098426;28;20053;-84
2023/12/18 09:03:13;;;;;;;36.72;26.33;;;;;;;;;;5082252;28;20058;-84
2023/12/18 09:05:39;;;;;;;37.58;26.55;;;;;;;;;;5065665;28;20054;-84
2023/12/18 09:08:05;;;;;;;35.00;25.90;;;;;;;;;;5081434;28;20051;-81
2023/12/18 09:10:33;;;;;;;38.40;26.27;;;;;;;;;;5098167;28;20043;-84
2023/12/18 09:12:59;;;;;;;40.35;28.65;;;;;;;;;;5081228;28;20058;-82
2023/12/18 09:15:25;;;;;;;40.80;27.25;;;;;;;;;;5081875;28;20043;-84
2023/12/18 09:17:51;;;;;;;36.53;26.05;;;;;;;;;;5081226;28;20083;-83
2023/12/18 09:20:17;;;;;;;41.13;28.25;;;;;;;;;;5081933;28;20410;-84
2023/12/18 09:22:46;;;;;;;41.95;29.35;;;;;;;;;;5081084;28;20044;-85
2023/12/18 09:25:12;;;;;;;40.65;28.27;;;;;;;;;;5081906;28;20464;-85
2023/12/18 09:27:38;;;;;;;41.13;29.05;;;;;;;;;;5081855;28;20337;-83
2023/12/18 09:30:05;;;;;;;41.95;28.80;;;;;;;;;;5080984;28;20046;-85
2023/12/18 09:32:31;;;;;;;40.20;27.65;;;;;;;;;;5097560;28;20048;-88
2023/12/18 09:34:57;;;;;;;37.28;28.40;;;;;;;;;;5080724;28;20086;-88
2023/12/18 09:37:25;;;;;;;41.88;28.40;;;;;;;;;;5080782;28;20051;-84
2023/12/18 09:39:51;;;;;;;36.47;27.35;;;;;;;;;;5080736;28;20050;-84
2023/12/18 09:42:17;;;;;;;37.88;29.17;;;;;;;;;;5063759;28;20055;-83
2023/12/18 09:44:44;;;;;;;36.92;27.33;;;;;;;;;;5081003;28;20101;-84
2023/12/18 09:47:10;;;;;;;41.40;26.92;;;;;;;;;;5080296;28;20074;-84
2023/12/18 09:49:37;;;;;;;40.85;25.27;;;;;;;;;;5064808;28;20454;-83
2023/12/18 09:52:06;;;;;;;38.17;27.60;;;;;;;;;;5064220;28;20120;-83
2023/12/18 09:54:33;;;;;;;40.38;28.90;;;;;;;;;;5079714;28;20056;-83
2023/12/18 09:57:02;;;;;;;39.92;28.80;;;;;;;;;;5080448;28;20097;-84
2023/12/18 09:59:28;;;;;;;45.75;28.88;;;;;;;;;;5081159;28;20043;-84
2023/12/18 10:01:54;;;;;;;42.92;29.55;;;;;;;;;;5097475;28;20051;-84
2023/12/18 10:04:21;;;;;;;43.50;30.80;;;;;;;;;;5097989;28;20079;-84
2023/12/18 10:06:47;;;;;;;39.53;28.50;;;;;;;;;;5080635;28;20061;-83
2023/12/18 10:09:16;;;;;;;47.60;28.83;;;;;;;;;;5097959;28;20044;-84
2023/12/18 10:11:45;;;;;;;41.88;28.50;;;;;;;;;;5097866;28;20040;-84
2023/12/18 10:14:15;;;;;;;40.10;30.23;;;;;;;;;;5080081;28;20109;-83
2023/12/18 10:16:42;;;;;;;41.35;29.50;;;;;;;;;;5080393;28;20089;-83
2023/12/18 10:19:08;;;;;;;38.85;28.98;;;;;;;;;;5080406;28;20488;-84
2023/12/18 10:21:34;;;;;;;36.63;27.55;;;;;;;;;;5079954;28;20054;-84
2023/12/18 10:24:01;;;;;;;42.13;29.92;;;;;;;;;;5080256;28;20069;-83
2023/12/18 10:26:28;;;;;;;42.10;29.52;;;;;;;;;;5096789;28;20134;-83
2023/12/18 10:28:54;;;;;;;35.92;29.13;;;;;;;;;;5064276;28;20073;-84
2023/12/18 10:31:21;;;;;;;42.03;28.25;;;;;;;;;;5096711;28;20046;-84
2023/12/18 10:33:47;;;;;;;40.47;28.67;;;;;;;;;;5096510;28;20083;-84
2023/12/18 10:36:16;;;;;;;44.22;28.60;;;;;;;;;;5079795;28;20055;-84
2023/12/18 10:38:47;;;;;;;51.55;29.95;;;;;;;;;;5096582;28;20048;-84
2023/12/18 10:41:14;;;;;;;42.65;30.52;;;;;;;;;;5079882;28;20514;-84
2023/12/18 10:43:40;;;;;;;40.78;29.85;;;;;;;;;;5095747;28;20083;-84
2023/12/18 10:46:06;;;;;;;41.92;28.30;;;;;;;;;;5062835;28;20048;-84
2023/12/18 10:48:33;;;;;;;43.85;31.10;;;;;;;;;;5079647;28;20399;-84
2023/12/18 10:51:00;;;;;;;42.53;28.67;;;;;;;;;;5096345;28;20048;-84
2023/12/18 10:53:26;;;;;;;36.08;28.27;;;;;;;;;;5096155;28;20044;-83
2023/12/18 10:55:53;;;;;;;41.00;28.23;;;;;;;;;;5095912;28;20062;-84
2023/12/18 10:58:20;;;;;;;42.65;28.30;;;;;;;;;;5095956;28;20043;-84
2023/12/18 11:00:46;;;;;;;39.17;27.55;;;;;;;;;;5079528;28;20052;-84
2023/12/18 11:03:14;;;;;;;43.28;27.38;;;;;;;;;;5096066;28;20131;-84
2023/12/18 11:05:41;;;;;;;38.67;28.67;;;;;;;;;;5096482;28;20442;-84
2023/12/18 11:08:07;;;;;;;36.33;25.20;;;;;;;;;;5079570;28;20102;-84
2023/12/18 11:10:34;;;;;;;40.40;26.98;;;;;;;;;;5096095;28;20048;-84
2023/12/18 11:13:15;;;;;;;42.20;26.83;;;;;;;;;;5095749;28;20476;-84
2023/12/18 11:15:52;;;;;;;40.33;26.30;;;;;;;;;;5079407;28;20083;-85
2023/12/18 11:18:21;;;;;;;40.08;28.15;;;;;;;;;;5096122;28;20044;-84
2023/12/18 11:20:48;;;;;;;40.40;26.77;;;;;;;;;;5096926;28;20073;-84
2023/12/18 11:23:16;;;;;;;37.20;25.92;;;;;;;;;;5078931;28;20079;-84
2023/12/18 11:25:45;;;;;;;38.17;27.45;;;;;;;;;;5096300;28;20047;-85
2023/12/18 11:28:12;;;;;;;42.42;26.85;;;;;;;;;;5096781;28;20048;-85
2023/12/18 11:30:44;;;;;;;41.33;26.10;;;;;;;;;;5095977;28;20066;-85
2023/12/18 11:33:11;;;;;;;36.95;25.45;;;;;;;;;;5079392;28;20139;-84
2023/12/18 11:35:38;;;;;;;37.40;26.10;;;;;;;;;;5079941;28;20044;-84
2023/12/18 11:38:06;;;;;;;33.30;26.52;;;;;;;;;;5096759;28;20104;-84
2023/12/18 11:40:36;;;;;;;35.78;25.73;;;;;;;;;;5096658;28;20050;-84
2023/12/18 11:43:03;;;;;;;41.53;26.70;;;;;;;;;;5096151;28;20043;-84
2023/12/18 11:45:29;;;;;;;36.58;24.15;;;;;;;;;;5095777;28;20480;-85
2023/12/18 11:48:03;;;;;;;41.10;24.58;;;;;;;;;;5079034;28;20084;-85
2023/12/18 11:50:32;;;;;;;38.05;25.33;;;;;;;;;;5078990;28;20043;-84
2023/12/18 11:52:59;;;;;;;39.55;25.02;;;;;;;;;;5078791;28;20047;-84
2023/12/18 11:55:40;;;;;;;38.17;23.85;;;;;;;;;;5062866;28;20139;-84
2023/12/18 11:58:09;;;;;;;33.47;23.15;;;;;;;;;;5082788;28;20055;-84
2023/12/18 12:00:37;;;;;;;28.85;23.63;;;;;;;;;;5100396;28;20376;-84
2023/12/18 12:03:04;;;;;;;33.70;22.40;;;;;;;;;;5100412;28;20380;-84
2023/12/18 12:05:31;;;;;;;35.85;22.38;;;;;;;;;;5066098;28;20047;-84
2023/12/18 12:07:58;;;;;;;34.00;22.20;;;;;;;;;;5082580;28;20138;-84
2023/12/18 12:10:24;;;;;;;33.75;22.65;;;;;;;;;;5099398;28;20475;-84
2023/12/18 12:12:54;;;;;;;34.05;24.55;;;;;;;;;;5082477;28;20051;-86
2023/12/18 12:15:28;;;;;;;32.67;21.15;;;;;;;;;;5099302;28;20048;-84
2023/12/18 12:18:04;;;;;;;36.65;22.73;;;;;;;;;;5082332;28;20503;-84
2023/12/18 12:20:31;;;;;;;35.25;22.98;;;;;;;;;;5083060;28;20054;-84
2023/12/18 12:22:57;;;;;;;32.03;22.48;;;;;;;;;;5099446;28;20044;-84
2023/12/18 12:25:23;;;;;;;32.00;21.45;;;;;;;;;;5082534;28;20380;-84
2023/12/18 12:27:50;;;;;;;31.63;21.85;;;;;;;;;;5098851;28;20572;-84
2023/12/18 12:30:21;;;;;;;32.58;22.02;;;;;;;;;;5082227;28;20047;-84
2023/12/18 12:32:47;;;;;;;32.78;21.73;;;;;;;;;;5082320;28;20047;-84
2023/12/18 12:35:16;;;;;;;31.70;21.77;;;;;;;;;;5098656;28;20061;-84
2023/12/18 12:37:42;;;;;;;26.10;21.58;;;;;;;;;;5098844;28;20126;-85
2023/12/18 12:40:09;;;;;;;30.83;22.15;;;;;;;;;;5098448;28;20043;-84
2023/12/18 12:42:38;;;;;;;31.40;21.88;;;;;;;;;;5081869;28;20051;-84
2023/12/18 12:45:09;;;;;;;32.75;23.67;;;;;;;;;;5099469;28;20059;-84
2023/12/18 12:47:35;;;;;;;32.42;21.13;;;;;;;;;;5098610;28;20043;-85
2023/12/18 12:50:04;;;;;;;31.25;22.58;;;;;;;;;;5098501;28;20047;-87
2023/12/18 12:52:31;;;;;;;36.33;23.98;;;;;;;;;;5098600;28;20040;-86
2023/12/18 12:54:57;;;;;;;30.42;22.23;;;;;;;;;;5081837;28;20064;-86
2023/12/18 12:57:23;;;;;;;32.38;21.67;;;;;;;;;;5098486;28;20116;-86
2023/12/18 12:59:53;;;;;;;28.80;20.45;;;;;;;;;;5081898;28;20051;-86
2023/12/18 13:02:22;;;;;;;29.80;23.05;;;;;;;;;;5098441;28;20434;-86
2023/12/18 13:04:49;;;;;;;30.30;22.15;;;;;;;;;;5081792;28;20058;-86
2023/12/18 13:07:18;;;;;;;30.92;21.70;;;;;;;;;;5080578;28;20197;-86
2023/12/18 13:09:44;;;;;;;34.10;23.17;;;;;;;;;;5081277;28;20075;-86
2023/12/18 13:12:14;;;;;;;31.42;22.50;;;;;;;;;;5081554;28;20044;-86
2023/12/18 13:14:41;;;;;;;26.08;21.60;;;;;;;;;;5097900;28;20122;-86
2023/12/18 13:17:07;;;;;;;34.47;22.85;;;;;;;;;;5081246;28;20135;-86
2023/12/18 13:19:33;;;;;;;32.55;22.50;;;;;;;;;;5081805;28;20044;-86
2023/12/18 13:22:00;;;;;;;30.23;20.92;;;;;;;;;;5098031;28;20051;-86
2023/12/18 13:24:27;;;;;;;28.40;20.35;;;;;;;;;;5080763;28;20052;-87
2023/12/18 13:26:53;;;;;;;30.65;22.17;;;;;;;;;;5080977;28;20086;-86
2023/12/18 13:29:19;;;;;;;32.35;20.77;;;;;;;;;;5080926;28;20039;-86
2023/12/18 13:31:45;;;;;;;30.38;20.33;;;;;;;;;;5081290;28;20387;-86
2023/12/18 13:34:13;;;;;;;31.90;21.35;;;;;;;;;;5097562;28;20040;-86
2023/12/18 13:36:39;;;;;;;28.95;21.80;;;;;;;;;;5080730;28;20050;-86
2023/12/18 13:39:06;;;;;;;30.40;20.83;;;;;;;;;;5080640;28;20491;-86
2023/12/18 13:41:32;;;;;;;34.10;20.27;;;;;;;;;;5081036;28;20051;-85
2023/12/18 13:43:58;;;;;;;27.45;20.25;;;;;;;;;;5080638;28;20043;-86
2023/12/18 13:46:24;;;;;;;30.60;19.00;;;;;;;;;;5097789;28;20048;-85
2023/12/18 13:48:51;;;;;;;30.23;20.35;;;;;;;;;;5097185;28;20050;-85
2023/12/18 13:51:17;;;;;;;33.55;19.65;;;;;;;;;;5080613;28;20058;-85
2023/12/18 13:53:43;;;;;;;28.80;19.67;;;;;;;;;;5080036;28;20050;-86
2023/12/18 13:56:10;;;;;;;29.60;19.33;;;;;;;;;;5081367;28;20055;-86
2023/12/18 13:58:36;;;;;;;26.38;19.70;;;;;;;;;;5080868;28;20348;-85
2023/12/18 14:01:02;;;;;;;25.73;19.23;;;;;;;;;;5080463;28;20524;-85
2023/12/18 14:03:28;;;;;;;28.33;20.52;;;;;;;;;;5097191;28;20112;-86
2023/12/18 14:05:55;;;;;;;29.80;19.55;;;;;;;;;;5080233;28;20093;-86
2023/12/18 14:08:21;;;;;;;32.53;19.67;;;;;;;;;;5097055;28;20484;-86
2023/12/18 14:10:48;;;;;;;30.15;19.40;;;;;;;;;;5081066;28;20047;-86
2023/12/18 14:13:14;;;;;;;26.52;18.80;;;;;;;;;;5096788;28;20532;-85